Time;durP1;ratioP1;P1;durP2;ratioP2;P2;SDS_P1;SDS_P2;PMS_P1;PMS_P2;Temp;Humidity;BMP_temperature;BMP_pressure;BME280_temperature;BME280_humidity;BME280_pressure;Samples;Min_cycle;Max_cycle;Signal;HPM_P1;HPM_P2
2023/10/23 00:01:14;;;;;;;8.63;4.10;;;;;;;;;;5111631;28;20075;-54
2023/10/23 00:03:41;;;;;;;6.68;3.88;;;;;;;;;;5111243;28;20119;-53
2023/10/23 00:06:08;;;;;;;8.55;5.30;;;;;;;;;;5109005;28;20048;-54
2023/10/23 00:08:36;;;;;;;10.98;6.50;;;;;;;;;;5111645;28;20122;-51
2023/10/23 00:11:03;;;;;;;8.68;6.20;;;;;;;;;;5106829;28;20155;-56
2023/10/23 00:13:29;;;;;;;11.10;6.70;;;;;;;;;;5106959;28;20119;-49
2023/10/23 00:15:56;;;;;;;10.70;6.78;;;;;;;;;;5095217;28;20048;-54
2023/10/23 00:18:23;;;;;;;12.15;7.45;;;;;;;;;;5109824;28;20505;-54
2023/10/23 00:20:49;;;;;;;12.45;7.97;;;;;;;;;;5111463;28;20101;-50
2023/10/23 00:23:16;;;;;;;11.38;7.38;;;;;;;;;;5111226;28;20130;-51
2023/10/23 00:25:44;;;;;;;12.65;7.65;;;;;;;;;;5111902;28;20551;-54
2023/10/23 00:28:11;;;;;;;12.35;7.80;;;;;;;;;;5111724;28;20043;-54
2023/10/23 00:30:37;;;;;;;11.45;6.78;;;;;;;;;;5111803;28;20506;-53
2023/10/23 00:33:04;;;;;;;12.10;7.90;;;;;;;;;;5103122;28;20047;-50
2023/10/23 00:35:31;;;;;;;12.40;9.05;;;;;;;;;;5111550;28;20131;-52
2023/10/23 00:37:58;;;;;;;12.38;9.10;;;;;;;;;;5109258;28;21191;-51
2023/10/23 00:40:24;;;;;;;12.60;9.68;;;;;;;;;;5111566;28;20145;-53
2023/10/23 00:42:53;;;;;;;13.90;8.93;;;;;;;;;;5111232;28;20043;-53
2023/10/23 00:45:19;;;;;;;15.48;9.38;;;;;;;;;;5105604;28;20134;-50
2023/10/23 00:47:46;;;;;;;27.80;10.95;;;;;;;;;;5107840;28;20066;-53
2023/10/23 00:50:13;;;;;;;12.45;8.93;;;;;;;;;;5090753;28;20070;-54
2023/10/23 00:52:40;;;;;;;12.82;8.60;;;;;;;;;;5107971;28;20418;-53
2023/10/23 00:55:08;;;;;;;12.05;8.60;;;;;;;;;;5107055;28;20131;-53
2023/10/23 00:57:36;;;;;;;12.82;8.57;;;;;;;;;;5091331;28;20141;-51
2023/10/23 01:00:04;;;;;;;12.38;8.73;;;;;;;;;;5116448;28;20043;-56
2023/10/23 01:02:31;;;;;;;15.00;8.65;;;;;;;;;;5117384;28;20086;-51
2023/10/23 01:04:58;;;;;;;13.80;8.60;;;;;;;;;;5112822;28;20055;-54
2023/10/23 01:07:24;;;;;;;12.70;8.13;;;;;;;;;;5112602;28;20138;-54
2023/10/23 01:09:51;;;;;;;14.95;8.07;;;;;;;;;;5118105;28;20487;-50
2023/10/23 01:12:18;;;;;;;12.38;8.43;;;;;;;;;;5103757;28;20046;-50
2023/10/23 01:14:44;;;;;;;12.30;7.82;;;;;;;;;;5106784;28;20487;-51
2023/10/23 01:17:12;;;;;;;15.07;8.20;;;;;;;;;;5109474;28;20043;-54
2023/10/23 01:19:39;;;;;;;12.77;7.95;;;;;;;;;;5117696;28;20443;-51
2023/10/23 01:22:06;;;;;;;11.60;7.53;;;;;;;;;;5117867;28;20180;-51
2023/10/23 01:24:34;;;;;;;11.43;7.85;;;;;;;;;;5117771;28;20048;-49
2023/10/23 01:27:02;;;;;;;14.50;8.18;;;;;;;;;;5097688;28;20055;-52
2023/10/23 01:29:29;;;;;;;10.55;7.40;;;;;;;;;;5097312;28;20050;-54
2023/10/23 01:31:55;;;;;;;11.88;8.18;;;;;;;;;;5116505;28;20130;-52
2023/10/23 01:34:22;;;;;;;12.13;8.45;;;;;;;;;;5117860;28;20489;-55
2023/10/23 01:36:49;;;;;;;12.88;7.88;;;;;;;;;;5117704;28;20139;-52
2023/10/23 01:39:15;;;;;;;11.65;7.38;;;;;;;;;;5112915;28;20482;-50
2023/10/23 01:41:42;;;;;;;11.57;7.85;;;;;;;;;;5106234;28;20050;-52
2023/10/23 01:44:11;;;;;;;10.38;6.85;;;;;;;;;;5117601;28;20067;-55
2023/10/23 01:46:38;;;;;;;11.57;7.53;;;;;;;;;;5117396;28;20044;-53
2023/10/23 01:49:05;;;;;;;12.40;7.90;;;;;;;;;;5109887;28;20493;-57
2023/10/23 01:51:31;;;;;;;10.90;6.90;;;;;;;;;;5117721;28;20047;-50
2023/10/23 01:53:58;;;;;;;12.68;8.02;;;;;;;;;;5117114;28;20051;-49
2023/10/23 01:56:24;;;;;;;11.98;7.38;;;;;;;;;;5112141;28;20044;-51
2023/10/23 01:58:51;;;;;;;12.15;7.55;;;;;;;;;;5117630;28;20047;-53
2023/10/23 02:01:24;;;;;;;11.02;7.57;;;;;;;;;;5103284;28;20048;-53
2023/10/23 02:03:51;;;;;;;11.88;6.90;;;;;;;;;;5096798;28;20126;-55
2023/10/23 02:06:18;;;;;;;13.02;6.97;;;;;;;;;;5108793;28;20135;-54
2023/10/23 02:08:44;;;;;;;9.50;6.93;;;;;;;;;;5114509;28;20383;-52
2023/10/23 02:11:11;;;;;;;11.68;7.70;;;;;;;;;;5113409;28;20107;-50
2023/10/23 02:13:38;;;;;;;9.25;6.68;;;;;;;;;;5113722;28;20495;-54
2023/10/23 02:16:05;;;;;;;9.07;6.65;;;;;;;;;;5109445;28;20054;-50
2023/10/23 02:18:33;;;;;;;9.10;6.63;;;;;;;;;;5114445;28;20550;-53
2023/10/23 02:21:01;;;;;;;11.05;6.82;;;;;;;;;;5113937;28;20054;-55
2023/10/23 02:23:27;;;;;;;10.82;7.03;;;;;;;;;;5110644;28;20047;-49
2023/10/23 02:25:54;;;;;;;11.98;7.45;;;;;;;;;;5113905;28;20403;-50
2023/10/23 02:28:21;;;;;;;14.23;7.82;;;;;;;;;;5113878;28;20579;-51
2023/10/23 02:30:47;;;;;;;8.82;6.53;;;;;;;;;;5112497;28;20040;-48
2023/10/23 02:33:14;;;;;;;11.68;7.28;;;;;;;;;;5106440;28;20073;-50
2023/10/23 02:35:43;;;;;;;11.15;7.30;;;;;;;;;;5096674;28;20048;-55
2023/10/23 02:38:10;;;;;;;10.27;7.47;;;;;;;;;;5113941;28;20051;-53
2023/10/23 02:40:37;;;;;;;12.43;7.55;;;;;;;;;;5113723;28;20130;-54
2023/10/23 02:43:04;;;;;;;11.35;6.93;;;;;;;;;;5105041;28;20051;-55
2023/10/23 02:45:33;;;;;;;10.80;6.78;;;;;;;;;;5106417;28;20105;-53
2023/10/23 02:48:00;;;;;;;12.02;7.72;;;;;;;;;;5113094;28;20434;-50
2023/10/23 02:50:27;;;;;;;10.55;7.13;;;;;;;;;;5110180;28;20542;-50
2023/10/23 02:52:55;;;;;;;12.23;7.90;;;;;;;;;;5113245;28;20058;-57
2023/10/23 02:55:21;;;;;;;9.55;7.45;;;;;;;;;;5113366;28;20040;-51
2023/10/23 02:57:48;;;;;;;9.57;6.53;;;;;;;;;;5113739;28;20062;-56
2023/10/23 03:00:15;;;;;;;10.40;6.93;;;;;;;;;;5113630;28;20043;-52
2023/10/23 03:02:43;;;;;;;9.95;6.50;;;;;;;;;;5096150;28;20568;-52
2023/10/23 03:05:10;;;;;;;8.32;6.05;;;;;;;;;;5097261;28;20047;-51
2023/10/23 03:07:36;;;;;;;8.55;6.05;;;;;;;;;;5113233;28;20469;-51
2023/10/23 03:10:05;;;;;;;8.90;5.85;;;;;;;;;;5113231;28;20426;-52
2023/10/23 03:12:32;;;;;;;9.60;6.63;;;;;;;;;;5113003;28;20093;-53
2023/10/23 03:14:58;;;;;;;11.85;5.65;;;;;;;;;;5104252;28;20052;-53
2023/10/23 03:17:25;;;;;;;8.50;5.53;;;;;;;;;;5112885;28;20050;-51
2023/10/23 03:19:51;;;;;;;10.27;6.03;;;;;;;;;;5111228;28;20419;-53
2023/10/23 03:22:18;;;;;;;9.43;5.40;;;;;;;;;;5092112;28;20054;-53
2023/10/23 03:24:45;;;;;;;10.18;5.65;;;;;;;;;;5109644;28;20039;-55
2023/10/23 03:27:13;;;;;;;9.80;5.45;;;;;;;;;;5105845;28;20054;-57
2023/10/23 03:29:41;;;;;;;9.13;5.72;;;;;;;;;;5113173;28;20520;-55
2023/10/23 03:32:08;;;;;;;12.27;5.75;;;;;;;;;;5109454;28;20040;-49
2023/10/23 03:34:35;;;;;;;8.48;5.38;;;;;;;;;;5107677;28;20043;-55
2023/10/23 03:37:01;;;;;;;8.70;5.45;;;;;;;;;;5109263;28;20051;-52
2023/10/23 03:39:28;;;;;;;8.50;5.55;;;;;;;;;;5105518;28;20399;-51
2023/10/23 03:41:55;;;;;;;10.10;5.75;;;;;;;;;;5093136;28;20044;-55
2023/10/23 03:44:23;;;;;;;8.52;5.38;;;;;;;;;;5107445;28;20044;-53
2023/10/23 03:46:49;;;;;;;9.55;5.70;;;;;;;;;;5108617;28;20047;-51
2023/10/23 03:49:15;;;;;;;7.43;4.75;;;;;;;;;;5098912;28;20432;-53
2023/10/23 03:51:42;;;;;;;8.30;5.20;;;;;;;;;;5091974;28;20044;-50
2023/10/23 03:54:08;;;;;;;7.60;5.60;;;;;;;;;;5091604;28;20048;-55
2023/10/23 03:56:35;;;;;;;8.10;5.00;;;;;;;;;;5092219;28;20137;-53
2023/10/23 03:59:02;;;;;;;7.72;5.05;;;;;;;;;;5092005;28;20456;-52
2023/10/23 04:01:30;;;;;;;8.15;5.57;;;;;;;;;;5091954;28;20514;-51
2023/10/23 04:03:57;;;;;;;8.95;6.00;;;;;;;;;;5091506;28;20127;-49
2023/10/23 04:06:24;;;;;;;8.02;6.22;;;;;;;;;;5091619;28;20040;-55
2023/10/23 04:08:52;;;;;;;8.45;5.80;;;;;;;;;;5099783;28;20051;-50
2023/10/23 04:11:18;;;;;;;9.13;5.63;;;;;;;;;;5104348;28;20048;-53
2023/10/23 04:13:45;;;;;;;8.32;6.07;;;;;;;;;;5091164;28;20051;-51
2023/10/23 04:16:12;;;;;;;6.75;5.57;;;;;;;;;;5091611;28;20575;-55
2023/10/23 04:18:40;;;;;;;9.18;5.55;;;;;;;;;;5100165;28;20647;-52
2023/10/23 04:21:08;;;;;;;7.75;5.55;;;;;;;;;;5111978;28;20057;-51
2023/10/23 04:23:35;;;;;;;10.93;5.72;;;;;;;;;;5111790;28;20503;-51
2023/10/23 04:26:02;;;;;;;8.15;5.00;;;;;;;;;;5111843;28;20075;-55
2023/10/23 04:28:29;;;;;;;8.65;4.65;;;;;;;;;;5111685;28;20043;-53
2023/10/23 04:30:56;;;;;;;9.35;5.43;;;;;;;;;;5111670;28;20050;-49
2023/10/23 04:33:23;;;;;;;8.48;5.20;;;;;;;;;;5110193;28;20048;-54
2023/10/23 04:35:52;;;;;;;7.78;5.65;;;;;;;;;;5111250;28;20047;-50
2023/10/23 04:38:19;;;;;;;9.95;5.53;;;;;;;;;;5111713;28;20050;-51
2023/10/23 04:40:46;;;;;;;8.82;5.10;;;;;;;;;;5111352;28;20142;-51
2023/10/23 04:43:13;;;;;;;11.23;5.18;;;;;;;;;;5111298;28;20075;-50
2023/10/23 04:45:40;;;;;;;9.02;4.50;;;;;;;;;;5111384;28;20461;-54
2023/10/23 04:48:07;;;;;;;8.68;4.95;;;;;;;;;;5111461;28;20135;-56
2023/10/23 04:50:35;;;;;;;8.57;4.72;;;;;;;;;;5111821;28;20132;-53
2023/10/23 04:53:02;;;;;;;8.02;4.07;;;;;;;;;;5111480;28;20154;-51
2023/10/23 04:55:33;;;;;;;8.73;4.88;;;;;;;;;;5111573;28;20529;-55
2023/10/23 04:57:59;;;;;;;6.63;4.70;;;;;;;;;;5111476;28;20492;-52
2023/10/23 05:00:26;;;;;;;7.57;4.40;;;;;;;;;;5111410;28;20048;-52
2023/10/23 05:02:53;;;;;;;7.00;4.20;;;;;;;;;;5111362;28;20139;-50
2023/10/23 05:05:19;;;;;;;9.80;4.70;;;;;;;;;;5097670;28;20455;-57
2023/10/23 05:07:46;;;;;;;6.82;4.60;;;;;;;;;;5091417;28;20575;-52
2023/10/23 05:10:14;;;;;;;7.63;4.30;;;;;;;;;;5091169;28;20123;-54
2023/10/23 05:12:42;;;;;;;6.70;4.85;;;;;;;;;;5091150;28;20048;-54
2023/10/23 05:15:09;;;;;;;8.60;4.65;;;;;;;;;;5091010;28;20048;-53
2023/10/23 05:17:36;;;;;;;7.30;4.28;;;;;;;;;;5091175;28;20052;-50
2023/10/23 05:20:03;;;;;;;6.35;4.93;;;;;;;;;;5091372;28;20132;-54
2023/10/23 05:22:29;;;;;;;7.35;3.92;;;;;;;;;;5091135;28;20048;-50
2023/10/23 05:24:56;;;;;;;6.60;3.83;;;;;;;;;;5090962;28;20138;-53
2023/10/23 05:27:24;;;;;;;7.57;4.28;;;;;;;;;;5091072;28;20044;-57
2023/10/23 05:29:51;;;;;;;8.43;3.97;;;;;;;;;;5091580;28;20388;-53
2023/10/23 05:32:17;;;;;;;7.15;4.30;;;;;;;;;;5090741;28;20040;-53
2023/10/23 05:34:45;;;;;;;6.32;4.15;;;;;;;;;;5090822;28;20040;-54
2023/10/23 05:37:11;;;;;;;7.22;4.00;;;;;;;;;;5091054;28;20048;-53
2023/10/23 05:39:38;;;;;;;6.88;4.85;;;;;;;;;;5090784;28;20043;-48
2023/10/23 05:42:05;;;;;;;9.90;4.38;;;;;;;;;;5105035;28;20059;-55
2023/10/23 05:44:33;;;;;;;9.75;4.53;;;;;;;;;;5107987;28;20491;-56
2023/10/23 05:47:00;;;;;;;7.72;5.07;;;;;;;;;;5108880;28;20054;-53
2023/10/23 05:49:27;;;;;;;8.48;4.25;;;;;;;;;;5112448;28;20135;-53
2023/10/23 05:51:54;;;;;;;8.90;4.68;;;;;;;;;;5112302;28;20036;-52
2023/10/23 05:54:21;;;;;;;8.25;4.20;;;;;;;;;;5108816;28;20046;-51
2023/10/23 05:56:47;;;;;;;7.72;4.80;;;;;;;;;;5113946;28;20046;-52
2023/10/23 05:59:14;;;;;;;7.63;4.63;;;;;;;;;;5109796;28;20571;-58
2023/10/23 06:01:42;;;;;;;7.88;4.43;;;;;;;;;;5113647;28;20048;-55
2023/10/23 06:04:08;;;;;;;9.05;4.57;;;;;;;;;;5106769;28;20048;-55
2023/10/23 06:06:35;;;;;;;5.63;3.40;;;;;;;;;;5113042;28;20611;-49
2023/10/23 06:09:04;;;;;;;8.05;4.07;;;;;;;;;;5109501;28;20053;-49
2023/10/23 06:11:30;;;;;;;6.43;3.78;;;;;;;;;;5109400;28;20556;-54
2023/10/23 06:13:57;;;;;;;9.07;3.80;;;;;;;;;;5096539;28;20123;-52
2023/10/23 06:16:24;;;;;;;8.02;3.65;;;;;;;;;;5106490;28;20036;-57
2023/10/23 06:18:52;;;;;;;6.18;3.45;;;;;;;;;;5109921;28;20047;-57
2023/10/23 06:21:18;;;;;;;8.88;3.38;;;;;;;;;;5104723;28;20513;-52
2023/10/23 06:23:45;;;;;;;7.07;3.42;;;;;;;;;;5110685;28;20131;-57
2023/10/23 06:26:11;;;;;;;7.72;3.65;;;;;;;;;;5112378;28;20043;-54
2023/10/23 06:28:38;;;;;;;7.63;3.78;;;;;;;;;;5112213;28;20127;-53
2023/10/23 06:31:06;;;;;;;7.05;3.85;;;;;;;;;;5109323;28;20036;-53
2023/10/23 06:33:32;;;;;;;6.25;3.58;;;;;;;;;;5106330;28;20570;-53
2023/10/23 06:36:00;;;;;;;6.55;3.85;;;;;;;;;;5110412;28;20056;-57
2023/10/23 06:38:27;;;;;;;7.20;4.32;;;;;;;;;;5111131;28;20100;-55
2023/10/23 06:40:54;;;;;;;5.72;3.42;;;;;;;;;;5106489;28;20046;-58
2023/10/23 06:43:20;;;;;;;8.45;4.85;;;;;;;;;;5093538;28;20138;-59
2023/10/23 06:45:47;;;;;;;6.78;3.40;;;;;;;;;;5093777;28;20048;-57
2023/10/23 06:48:14;;;;;;;5.97;4.13;;;;;;;;;;5093808;28;20051;-56
2023/10/23 06:50:46;;;;;;;5.60;3.45;;;;;;;;;;5093852;28;20050;-54
2023/10/23 06:53:14;;;;;;;7.20;4.03;;;;;;;;;;5093478;28;20048;-57
2023/10/23 06:55:47;;;;;;;6.05;3.70;;;;;;;;;;5093634;28;20086;-58
2023/10/23 06:58:13;;;;;;;7.65;4.10;;;;;;;;;;5092793;28;20048;-55
2023/10/23 07:00:40;;;;;;;5.95;3.90;;;;;;;;;;5093277;28;20048;-54
2023/10/23 07:03:07;;;;;;;6.75;3.70;;;;;;;;;;5101195;28;20044;-54
2023/10/23 07:05:34;;;;;;;5.63;4.05;;;;;;;;;;5107710;28;20040;-53
2023/10/23 07:08:00;;;;;;;7.18;3.45;;;;;;;;;;5106402;28;20044;-53
2023/10/23 07:10:28;;;;;;;6.55;3.53;;;;;;;;;;5110555;28;20039;-55
2023/10/23 07:12:55;;;;;;;7.57;4.05;;;;;;;;;;5107983;28;20044;-55
2023/10/23 07:15:21;;;;;;;8.05;4.05;;;;;;;;;;5106253;28;20040;-56
2023/10/23 07:17:48;;;;;;;8.60;4.63;;;;;;;;;;5107524;28;20122;-56
2023/10/23 07:20:17;;;;;;;7.97;3.83;;;;;;;;;;5113859;28;20119;-50
2023/10/23 07:22:43;;;;;;;8.32;3.83;;;;;;;;;;5111979;28;20067;-54
2023/10/23 07:25:11;;;;;;;10.48;4.07;;;;;;;;;;5109630;28;20294;-55
2023/10/23 07:27:40;;;;;;;8.10;3.30;;;;;;;;;;5106219;28;20092;-53
2023/10/23 07:30:07;;;;;;;6.03;3.47;;;;;;;;;;5106405;28;20044;-54
2023/10/23 07:32:35;;;;;;;6.13;3.53;;;;;;;;;;5107671;28;20073;-57
2023/10/23 07:35:03;;;;;;;5.78;3.40;;;;;;;;;;5101463;28;20047;-53
2023/10/23 07:37:30;;;;;;;7.28;3.50;;;;;;;;;;5106633;28;20450;-56
2023/10/23 07:39:58;;;;;;;6.57;3.35;;;;;;;;;;5108374;28;20079;-54
2023/10/23 07:42:25;;;;;;;6.15;3.05;;;;;;;;;;5108496;28;20067;-52
2023/10/23 07:44:53;;;;;;;6.78;3.13;;;;;;;;;;5107688;28;20043;-51
2023/10/23 07:47:20;;;;;;;5.88;3.90;;;;;;;;;;5108771;28;20047;-53
2023/10/23 07:49:47;;;;;;;5.75;3.22;;;;;;;;;;5108496;28;20047;-50
2023/10/23 07:52:13;;;;;;;5.85;3.17;;;;;;;;;;5107767;28;20070;-53
2023/10/23 07:54:40;;;;;;;7.55;4.05;;;;;;;;;;5109046;28;20044;-59
2023/10/23 07:57:06;;;;;;;6.35;3.33;;;;;;;;;;5110959;28;20067;-54
2023/10/23 07:59:33;;;;;;;6.47;3.28;;;;;;;;;;5109402;28;20566;-55
2023/10/23 08:02:01;;;;;;;5.00;3.63;;;;;;;;;;5110645;28;20055;-51
2023/10/23 08:04:28;;;;;;;13.13;4.13;;;;;;;;;;5108691;28;20776;-57
2023/10/23 08:06:55;;;;;;;6.03;4.20;;;;;;;;;;5112252;28;20491;-56
2023/10/23 08:09:21;;;;;;;8.73;3.88;;;;;;;;;;5105356;28;20040;-54
2023/10/23 08:11:48;;;;;;;7.30;3.75;;;;;;;;;;5109091;28;20543;-50
2023/10/23 08:14:15;;;;;;;4.90;3.00;;;;;;;;;;5105260;28;20052;-50
2023/10/23 08:16:41;;;;;;;5.95;3.17;;;;;;;;;;5104052;28;20437;-53
2023/10/23 08:19:10;;;;;;;4.95;3.45;;;;;;;;;;5101868;28;20046;-52
2023/10/23 08:21:37;;;;;;;6.15;3.25;;;;;;;;;;5101747;28;20059;-52
2023/10/23 08:24:04;;;;;;;6.43;3.40;;;;;;;;;;5107626;28;20526;-55
2023/10/23 08:26:31;;;;;;;6.88;3.55;;;;;;;;;;5109168;28;20088;-52
2023/10/23 08:28:58;;;;;;;5.07;3.17;;;;;;;;;;5103927;28;20054;-56
2023/10/23 08:31:25;;;;;;;8.15;3.10;;;;;;;;;;5111124;28;20093;-54
2023/10/23 08:33:51;;;;;;;5.38;3.22;;;;;;;;;;5102729;28;20040;-53
2023/10/23 08:36:19;;;;;;;5.15;3.00;;;;;;;;;;5098280;28;20047;-56
2023/10/23 08:38:46;;;;;;;7.55;3.00;;;;;;;;;;5102151;28;20526;-53
2023/10/23 08:41:13;;;;;;;5.05;3.17;;;;;;;;;;5100898;28;20063;-53
2023/10/23 08:43:40;;;;;;;6.97;3.00;;;;;;;;;;5090607;28;20043;-54
2023/10/23 08:46:08;;;;;;;5.82;3.08;;;;;;;;;;5091355;28;20105;-51
2023/10/23 08:48:36;;;;;;;4.88;2.95;;;;;;;;;;5091178;28;20051;-52
2023/10/23 08:51:04;;;;;;;5.22;2.90;;;;;;;;;;5098329;28;20048;-51
2023/10/23 08:53:34;;;;;;;4.72;2.72;;;;;;;;;;5103094;28;20047;-52
2023/10/23 08:56:04;;;;;;;5.03;3.03;;;;;;;;;;5106208;28;20043;-54
2023/10/23 08:58:32;;;;;;;6.50;2.85;;;;;;;;;;5111526;28;20061;-53
2023/10/23 09:00:59;;;;;;;5.20;2.67;;;;;;;;;;5104647;28;20646;-53
2023/10/23 09:03:28;;;;;;;7.05;2.55;;;;;;;;;;5104820;28;20210;-53
2023/10/23 09:05:58;;;;;;;5.13;2.78;;;;;;;;;;5094159;28;20043;-55
2023/10/23 09:08:27;;;;;;;4.45;2.83;;;;;;;;;;5104615;28;20407;-51
2023/10/23 09:11:01;;;;;;;3.80;2.50;;;;;;;;;;5102417;28;20097;-51
2023/10/23 09:13:34;;;;;;;6.18;2.72;;;;;;;;;;5103653;28;20126;-51
2023/10/23 09:16:00;;;;;;;5.97;2.78;;;;;;;;;;5103629;28;20539;-51
2023/10/23 09:18:27;;;;;;;6.03;2.70;;;;;;;;;;5110136;28;20047;-51
2023/10/23 09:20:54;;;;;;;4.32;2.28;;;;;;;;;;5111258;28;20418;-51
2023/10/23 09:23:20;;;;;;;4.40;2.22;;;;;;;;;;5101734;28;20084;-53
2023/10/23 09:25:49;;;;;;;5.25;2.60;;;;;;;;;;5113629;28;20578;-55
2023/10/23 09:28:17;;;;;;;5.93;2.90;;;;;;;;;;5109665;28;20123;-56
2023/10/23 09:30:44;;;;;;;5.93;2.92;;;;;;;;;;5111015;28;20036;-54
2023/10/23 09:33:14;;;;;;;3.42;2.30;;;;;;;;;;5113499;28;20044;-55
2023/10/23 09:35:41;;;;;;;5.40;2.47;;;;;;;;;;5115086;28;20043;-54
2023/10/23 09:38:16;;;;;;;4.85;2.70;;;;;;;;;;5114930;28;20442;-55
2023/10/23 09:40:45;;;;;;;5.18;2.58;;;;;;;;;;5112195;28;20065;-56
2023/10/23 09:43:12;;;;;;;4.35;2.60;;;;;;;;;;5114833;28;20360;-54
2023/10/23 09:45:42;;;;;;;4.68;2.28;;;;;;;;;;5114832;28;20083;-54
2023/10/23 09:48:11;;;;;;;6.80;2.70;;;;;;;;;;5100247;28;20035;-53
2023/10/23 09:50:41;;;;;;;5.95;2.53;;;;;;;;;;5114990;28;20558;-54
2023/10/23 09:53:10;;;;;;;4.78;1.90;;;;;;;;;;5111260;28;20154;-54
2023/10/23 09:55:40;;;;;;;5.53;2.50;;;;;;;;;;5094487;28;20044;-55
2023/10/23 09:58:13;;;;;;;4.47;2.05;;;;;;;;;;5107005;28;20147;-56
2023/10/23 10:00:46;;;;;;;3.63;2.08;;;;;;;;;;5107034;28;20039;-55
2023/10/23 10:03:16;;;;;;;2.97;1.50;;;;;;;;;;5101496;28;20058;-56
2023/10/23 10:05:47;;;;;;;3.57;2.00;;;;;;;;;;5094382;28;20048;-52
2023/10/23 10:08:17;;;;;;;6.43;2.08;;;;;;;;;;5094177;28;20131;-51
2023/10/23 10:10:44;;;;;;;;;;;;;;;;;;5094493;28;20127;-56
2023/10/23 10:13:11;;;;;;;2.65;1.70;;;;;;;;;;5098171;28;20352;-52
2023/10/23 10:15:39;;;;;;;3.55;1.77;;;;;;;;;;5109913;28;20162;-53
2023/10/23 10:18:07;;;;;;;4.45;1.60;;;;;;;;;;5108551;28;20040;-51
2023/10/23 10:20:34;;;;;;;3.63;1.42;;;;;;;;;;5102548;28;20044;-52
2023/10/23 10:23:07;;;;;;;3.90;1.63;;;;;;;;;;5093290;28;20044;-51
2023/10/23 10:25:34;;;;;;;2.95;1.40;;;;;;;;;;5094078;28;20135;-54
2023/10/23 10:28:05;;;;;;;3.38;1.50;;;;;;;;;;5093631;28;20131;-55
2023/10/23 10:30:40;;;;;;;;;;;;;;;;;;5094282;28;20051;-55
2023/10/23 10:33:10;;;;;;;3.67;1.52;;;;;;;;;;5104656;28;19998;-53
2023/10/23 10:35:37;;;;;;;3.75;1.80;;;;;;;;;;5113578;28;20396;-52
2023/10/23 10:38:04;;;;;;;3.63;1.75;;;;;;;;;;5113842;28;20044;-52
2023/10/23 10:40:55;;;;;;;4.50;1.75;;;;;;;;;;5113848;28;20044;-52
2023/10/23 10:43:24;;;;;;;2.45;1.48;;;;;;;;;;5113932;28;20043;-53
2023/10/23 10:45:51;;;;;;;3.75;1.77;;;;;;;;;;5114005;28;20487;-56
2023/10/23 10:48:18;;;;;;;3.17;1.60;;;;;;;;;;5113753;28;20048;-53
2023/10/23 10:50:46;;;;;;;3.72;2.17;;;;;;;;;;5113931;28;20043;-55
2023/10/23 10:53:15;;;;;;;3.10;1.60;;;;;;;;;;5106335;28;20131;-61
2023/10/23 10:55:44;;;;;;;5.28;1.85;;;;;;;;;;5111326;28;20052;-56
2023/10/23 10:58:12;;;;;;;6.05;1.88;;;;;;;;;;5104023;28;20044;-56
2023/10/23 11:00:38;;;;;;;6.28;2.75;;;;;;;;;;5112357;28;20047;-56
2023/10/23 11:03:06;;;;;;;4.88;2.58;;;;;;;;;;5102045;28;20048;-54
2023/10/23 11:05:36;;;;;;;6.60;2.85;;;;;;;;;;5112645;28;20126;-50
2023/10/23 11:08:03;;;;;;;4.90;2.22;;;;;;;;;;5112745;28;20048;-52
2023/10/23 11:10:30;;;;;;;5.50;3.38;;;;;;;;;;5113167;28;20061;-55
2023/10/23 11:12:57;;;;;;;7.40;3.03;;;;;;;;;;5112161;28;20048;-54
2023/10/23 11:15:24;;;;;;;4.65;2.20;;;;;;;;;;5112978;28;20127;-51
2023/10/23 11:17:51;;;;;;;4.85;2.33;;;;;;;;;;5112269;28;20070;-55
2023/10/23 11:20:17;;;;;;;5.22;2.38;;;;;;;;;;5112915;28;20126;-53
2023/10/23 11:22:47;;;;;;;4.30;2.05;;;;;;;;;;5102981;28;20039;-53
2023/10/23 11:25:15;;;;;;;4.20;1.85;;;;;;;;;;5110369;28;20048;-54
2023/10/23 11:27:42;;;;;;;4.88;2.58;;;;;;;;;;5110207;28;20145;-56
2023/10/23 11:30:09;;;;;;;6.13;2.40;;;;;;;;;;5113112;28;20043;-57
2023/10/23 11:32:36;;;;;;;7.03;2.90;;;;;;;;;;5113194;28;20043;-52
2023/10/23 11:35:05;;;;;;;15.05;6.70;;;;;;;;;;5112113;28;20054;-51
2023/10/23 11:37:38;;;;;;;64.95;24.35;;;;;;;;;;5113001;28;20422;-53
2023/10/23 11:40:08;;;;;;;23.48;10.52;;;;;;;;;;5104577;28;20047;-51
2023/10/23 11:42:47;;;;;;;36.38;16.00;;;;;;;;;;5112962;28;20146;-55
2023/10/23 11:45:15;;;;;;;6.07;2.53;;;;;;;;;;5105599;28;20051;-53
2023/10/23 11:47:41;;;;;;;5.55;2.15;;;;;;;;;;5112645;28;20071;-53
2023/10/23 11:50:10;;;;;;;5.35;1.88;;;;;;;;;;5103764;28;20075;-55
2023/10/23 11:52:41;;;;;;;3.28;1.52;;;;;;;;;;5111601;28;20046;-56
2023/10/23 11:55:10;;;;;;;5.07;2.17;;;;;;;;;;5111569;28;20047;-55
2023/10/23 11:57:39;;;;;;;5.40;1.90;;;;;;;;;;5111722;28;20039;-57
2023/10/23 12:00:11;;;;;;;5.18;2.17;;;;;;;;;;5111207;28;20047;-55
2023/10/23 12:02:38;;;;;;;6.53;2.25;;;;;;;;;;5112329;28;20048;-52
2023/10/23 12:05:06;;;;;;;5.13;2.00;;;;;;;;;;5111340;28;20048;-54
2023/10/23 12:07:33;;;;;;;5.75;1.98;;;;;;;;;;5111159;28;20554;-55
2023/10/23 12:10:00;;;;;;;4.25;1.92;;;;;;;;;;5101274;28;20052;-56
2023/10/23 12:12:28;;;;;;;4.03;1.65;;;;;;;;;;5106596;28;20466;-52
2023/10/23 12:14:55;;;;;;;4.88;1.60;;;;;;;;;;5110900;28;20044;-54
2023/10/23 12:17:21;;;;;;;3.90;1.50;;;;;;;;;;5112192;28;20036;-54
2023/10/23 12:19:48;;;;;;;3.97;1.95;;;;;;;;;;5110919;28;20039;-56
2023/10/23 12:22:15;;;;;;;4.78;1.70;;;;;;;;;;5099060;28;20476;-55
2023/10/23 12:24:41;;;;;;;3.67;1.80;;;;;;;;;;5108674;28;20050;-56
2023/10/23 12:27:08;;;;;;;4.38;1.92;;;;;;;;;;5105000;28;20044;-56
2023/10/23 12:29:36;;;;;;;4.32;1.85;;;;;;;;;;5104383;28;20046;-57
2023/10/23 12:32:03;;;;;;;4.32;1.65;;;;;;;;;;5107002;28;20410;-57
2023/10/23 12:34:31;;;;;;;4.97;1.83;;;;;;;;;;5108082;28;20129;-51
2023/10/23 12:36:57;;;;;;;4.82;1.80;;;;;;;;;;5102570;28;20056;-56
2023/10/23 12:39:25;;;;;;;3.95;2.10;;;;;;;;;;5110692;28;20519;-55
2023/10/23 12:41:51;;;;;;;5.07;1.98;;;;;;;;;;5110347;28;20501;-58
2023/10/23 12:44:18;;;;;;;4.68;1.98;;;;;;;;;;5106581;28;20046;-62
2023/10/23 12:46:46;;;;;;;2.95;1.67;;;;;;;;;;5107355;28;20043;-58
2023/10/23 12:49:13;;;;;;;19.58;7.07;;;;;;;;;;5106624;28;20043;-55
2023/10/23 12:51:39;;;;;;;19.63;7.15;;;;;;;;;;5111580;28;20047;-54
2023/10/23 12:54:08;;;;;;;10.50;5.65;;;;;;;;;;5109557;28;20054;-56
2023/10/23 12:56:34;;;;;;;9.93;4.70;;;;;;;;;;5103478;28;20054;-52
2023/10/23 12:59:01;;;;;;;14.20;5.53;;;;;;;;;;5110698;28;20046;-56
2023/10/23 13:01:28;;;;;;;11.32;4.85;;;;;;;;;;5110539;28;20042;-57
2023/10/23 13:03:56;;;;;;;13.90;6.30;;;;;;;;;;5108420;28;20054;-54
2023/10/23 13:06:22;;;;;;;9.48;3.50;;;;;;;;;;5106955;28;20126;-55
2023/10/23 13:08:49;;;;;;;9.52;3.92;;;;;;;;;;5104494;28;20046;-58
2023/10/23 13:11:15;;;;;;;9.93;4.20;;;;;;;;;;5092100;28;20466;-53
2023/10/23 13:13:42;;;;;;;7.05;2.80;;;;;;;;;;5100408;28;20042;-54
2023/10/23 13:16:08;;;;;;;6.55;3.15;;;;;;;;;;5108844;28;20134;-56
2023/10/23 13:18:35;;;;;;;8.80;3.28;;;;;;;;;;5107724;28;20046;-55
2023/10/23 13:21:03;;;;;;;11.63;3.97;;;;;;;;;;5110171;28;20174;-56
2023/10/23 13:23:32;;;;;;;7.22;3.20;;;;;;;;;;5110506;28;20049;-54
2023/10/23 13:25:59;;;;;;;7.93;3.42;;;;;;;;;;5106531;28;20077;-53
2023/10/23 13:28:25;;;;;;;6.85;3.35;;;;;;;;;;5105698;28;20493;-56
2023/10/23 13:30:52;;;;;;;6.85;2.92;;;;;;;;;;5104977;28;20048;-52
2023/10/23 13:33:19;;;;;;;7.18;3.25;;;;;;;;;;5109393;28;20039;-54
2023/10/23 13:35:45;;;;;;;7.20;3.38;;;;;;;;;;5102628;28;20037;-55
2023/10/23 13:38:14;;;;;;;6.25;3.17;;;;;;;;;;5103482;28;20054;-57
2023/10/23 13:40:41;;;;;;;6.85;2.80;;;;;;;;;;5104388;28;20047;-56
2023/10/23 13:43:07;;;;;;;5.95;3.63;;;;;;;;;;5108907;28;20044;-57
2023/10/23 13:45:34;;;;;;;5.65;2.90;;;;;;;;;;5108281;28;20066;-56
2023/10/23 13:48:02;;;;;;;11.50;3.55;;;;;;;;;;5107783;28;20047;-55
2023/10/23 13:50:29;;;;;;;7.03;3.08;;;;;;;;;;5101404;28;20096;-57
2023/10/23 13:52:55;;;;;;;5.93;3.08;;;;;;;;;;5103477;28;20475;-53
2023/10/23 13:55:23;;;;;;;7.35;3.80;;;;;;;;;;5109926;28;20039;-55
2023/10/23 13:57:50;;;;;;;7.07;3.15;;;;;;;;;;5103191;28;20044;-54
2023/10/23 14:00:17;;;;;;;7.43;4.22;;;;;;;;;;5110720;28;20096;-57
2023/10/23 14:02:44;;;;;;;19.30;8.73;;;;;;;;;;5109968;28;20044;-52
2023/10/23 14:05:10;;;;;;;9.80;4.45;;;;;;;;;;5110127;28;20526;-54
2023/10/23 14:07:37;;;;;;;20.30;9.43;;;;;;;;;;5112508;28;20036;-53
2023/10/23 14:10:04;;;;;;;18.55;7.25;;;;;;;;;;5112194;28;20411;-57
2023/10/23 14:12:32;;;;;;;6.53;3.00;;;;;;;;;;5114273;28;20047;-58
2023/10/23 14:14:59;;;;;;;6.85;3.35;;;;;;;;;;5112839;28;20058;-51
2023/10/23 14:17:26;;;;;;;5.53;3.22;;;;;;;;;;5108136;28;20062;-56
2023/10/23 14:19:52;;;;;;;10.05;3.90;;;;;;;;;;5111875;28;20464;-54
2023/10/23 14:22:19;;;;;;;6.10;3.65;;;;;;;;;;5109202;28;20043;-53
2023/10/23 14:24:48;;;;;;;6.25;3.55;;;;;;;;;;5112151;28;20483;-52
2023/10/23 14:27:15;;;;;;;8.48;4.10;;;;;;;;;;5113915;28;20336;-56
2023/10/23 14:29:43;;;;;;;5.97;3.70;;;;;;;;;;5106339;28;20042;-53
2023/10/23 14:32:09;;;;;;;5.80;3.15;;;;;;;;;;5111601;28;20044;-55
2023/10/23 14:34:36;;;;;;;6.18;3.15;;;;;;;;;;5111593;28;20127;-56
2023/10/23 14:37:03;;;;;;;7.70;3.35;;;;;;;;;;5112858;28;20058;-58
2023/10/23 14:39:29;;;;;;;6.68;3.22;;;;;;;;;;5108840;28;20422;-52
2023/10/23 14:41:56;;;;;;;5.32;2.90;;;;;;;;;;5111555;28;20105;-56